sensor_id;sensor_type;location;lat;lon;timestamp;pressure;altitude;pressure_sealevel;temperature;humidity
73106;BME280;61559;50.476;15.588;2023-02-26T00:00:29;96618.70;;;-0.29;78.68
73106;BME280;61559;50.476;15.588;2023-02-26T00:03:20;96626.11;;;-0.32;78.16
73106;BME280;61559;50.476;15.588;2023-02-26T00:05:51;96624.60;;;-0.37;77.65
73106;BME280;61559;50.476;15.588;2023-02-26T00:08:22;96622.44;;;-0.41;77.78
73106;BME280;61559;50.476;15.588;2023-02-26T00:10:53;96629.08;;;-0.43;78.01
73106;BME280;61559;50.476;15.588;2023-02-26T00:13:25;96630.65;;;-0.46;78.41
73106;BME280;61559;50.476;15.588;2023-02-26T00:15:59;96632.83;;;-0.51;78.63
73106;BME280;61559;50.476;15.588;2023-02-26T00:18:32;96635.92;;;-0.55;78.78
73106;BME280;61559;50.476;15.588;2023-02-26T00:21:04;96640.98;;;-0.58;78.95
73106;BME280;61559;50.476;15.588;2023-02-26T00:23:36;96645.98;;;-0.61;79.20
73106;BME280;61559;50.476;15.588;2023-02-26T00:26:08;96644.89;;;-0.68;79.39
73106;BME280;61559;50.476;15.588;2023-02-26T00:28:40;96647.77;;;-0.72;79.49
73106;BME280;61559;50.476;15.588;2023-02-26T00:31:15;96651.52;;;-0.73;79.84
73106;BME280;61559;50.476;15.588;2023-02-26T00:33:47;96649.80;;;-0.74;79.77
73106;BME280;61559;50.476;15.588;2023-02-26T00:36:22;96652.52;;;-0.76;79.98
73106;BME280;61559;50.476;15.588;2023-02-26T00:39:03;96654.05;;;-0.78;80.02
73106;BME280;61559;50.476;15.588;2023-02-26T00:41:37;96655.41;;;-0.80;79.94
73106;BME280;61559;50.476;15.588;2023-02-26T00:44:09;96653.49;;;-0.83;80.19
73106;BME280;61559;50.476;15.588;2023-02-26T00:46:45;96656.80;;;-0.86;80.28
73106;BME280;61559;50.476;15.588;2023-02-26T00:49:25;96654.02;;;-0.91;80.19
73106;BME280;61559;50.476;15.588;2023-02-26T00:52:00;96650.03;;;-0.92;80.45
73106;BME280;61559;50.476;15.588;2023-02-26T00:54:32;96654.89;;;-0.96;80.71
73106;BME280;61559;50.476;15.588;2023-02-26T00:57:03;96656.60;;;-1.01;80.70
73106;BME280;61559;50.476;15.588;2023-02-26T00:59:35;96660.99;;;-1.05;80.46
73106;BME280;61559;50.476;15.588;2023-02-26T01:02:06;96669.74;;;-1.08;80.23
73106;BME280;61559;50.476;15.588;2023-02-26T01:04:38;96671.60;;;-1.11;80.40
73106;BME280;61559;50.476;15.588;2023-02-26T01:07:10;96676.25;;;-1.13;80.54
73106;BME280;61559;50.476;15.588;2023-02-26T01:09:43;96677.35;;;-1.19;80.54
73106;BME280;61559;50.476;15.588;2023-02-26T01:12:15;96677.95;;;-1.22;80.43
73106;BME280;61559;50.476;15.588;2023-02-26T01:14:49;96677.99;;;-1.25;80.25
73106;BME280;61559;50.476;15.588;2023-02-26T01:17:24;96675.22;;;-1.27;80.06
73106;BME280;61559;50.476;15.588;2023-02-26T01:20:01;96681.52;;;-1.32;79.90
73106;BME280;61559;50.476;15.588;2023-02-26T01:22:36;96684.67;;;-1.41;80.26
73106;BME280;61559;50.476;15.588;2023-02-26T01:25:12;96690.73;;;-1.46;80.35
73106;BME280;61559;50.476;15.588;2023-02-26T01:27:44;96697.73;;;-1.52;80.49
73106;BME280;61559;50.476;15.588;2023-02-26T01:30:17;96697.16;;;-1.56;80.17
73106;BME280;61559;50.476;15.588;2023-02-26T01:32:56;96702.15;;;-1.57;79.66
73106;BME280;61559;50.476;15.588;2023-02-26T01:35:48;96703.27;;;-1.59;78.62
73106;BME280;61559;50.476;15.588;2023-02-26T01:38:26;96704.94;;;-1.58;78.23
73106;BME280;61559;50.476;15.588;2023-02-26T01:41:24;96707.81;;;-1.57;78.35
73106;BME280;61559;50.476;15.588;2023-02-26T01:44:04;96718.97;;;-1.58;78.05
73106;BME280;61559;50.476;15.588;2023-02-26T01:46:51;96720.88;;;-1.59;77.71
73106;BME280;61559;50.476;15.588;2023-02-26T01:49:27;96724.02;;;-1.57;77.56
73106;BME280;61559;50.476;15.588;2023-02-26T01:51:59;96729.58;;;-1.57;76.94
73106;BME280;61559;50.476;15.588;2023-02-26T01:54:33;96732.91;;;-1.56;77.32
73106;BME280;61559;50.476;15.588;2023-02-26T01:57:08;96734.36;;;-1.58;75.65
73106;BME280;61559;50.476;15.588;2023-02-26T01:59:42;96737.20;;;-1.58;76.22
73106;BME280;61559;50.476;15.588;2023-02-26T02:02:17;96735.43;;;-1.58;74.84
73106;BME280;61559;50.476;15.588;2023-02-26T02:04:49;96735.84;;;-1.57;74.59
73106;BME280;61559;50.476;15.588;2023-02-26T02:07:21;96740.79;;;-1.56;74.82
73106;BME280;61559;50.476;15.588;2023-02-26T02:09:52;96744.41;;;-1.58;75.27
73106;BME280;61559;50.476;15.588;2023-02-26T02:12:28;96747.39;;;-1.58;74.21
73106;BME280;61559;50.476;15.588;2023-02-26T02:15:08;96750.03;;;-1.56;74.72
73106;BME280;61559;50.476;15.588;2023-02-26T02:17:48;96751.53;;;-1.58;75.23
73106;BME280;61559;50.476;15.588;2023-02-26T02:20:39;96756.77;;;-1.61;74.63
73106;BME280;61559;50.476;15.588;2023-02-26T02:23:20;96761.42;;;-1.62;75.19
73106;BME280;61559;50.476;15.588;2023-02-26T02:26:31;96764.39;;;-1.62;75.74
73106;BME280;61559;50.476;15.588;2023-02-26T02:29:22;96770.30;;;-1.64;76.46
73106;BME280;61559;50.476;15.588;2023-02-26T02:31:57;96769.16;;;-1.68;76.80
73106;BME280;61559;50.476;15.588;2023-02-26T02:34:35;96771.16;;;-1.73;77.33
73106;BME280;61559;50.476;15.588;2023-02-26T02:37:13;96776.77;;;-1.78;77.67
73106;BME280;61559;50.476;15.588;2023-02-26T02:39:48;96783.80;;;-1.83;77.87
73106;BME280;61559;50.476;15.588;2023-02-26T02:42:26;96785.99;;;-1.87;78.05
73106;BME280;61559;50.476;15.588;2023-02-26T02:45:02;96790.39;;;-1.88;78.50
73106;BME280;61559;50.476;15.588;2023-02-26T02:47:37;96795.27;;;-1.89;78.69
73106;BME280;61559;50.476;15.588;2023-02-26T02:50:14;96795.27;;;-1.90;78.79
73106;BME280;61559;50.476;15.588;2023-02-26T02:52:53;96798.69;;;-1.91;78.98
73106;BME280;61559;50.476;15.588;2023-02-26T02:55:30;96801.20;;;-1.93;79.15
73106;BME280;61559;50.476;15.588;2023-02-26T02:58:05;96804.07;;;-1.95;79.30
73106;BME280;61559;50.476;15.588;2023-02-26T03:00:41;96808.95;;;-1.95;79.24
73106;BME280;61559;50.476;15.588;2023-02-26T03:03:20;96814.86;;;-1.96;79.19
73106;BME280;61559;50.476;15.588;2023-02-26T03:05:55;96822.42;;;-1.97;79.50
73106;BME280;61559;50.476;15.588;2023-02-26T03:08:29;96829.36;;;-2.01;79.56
73106;BME280;61559;50.476;15.588;2023-02-26T03:11:01;96831.96;;;-2.03;79.61
73106;BME280;61559;50.476;15.588;2023-02-26T03:13:32;96834.67;;;-2.05;79.99
73106;BME280;61559;50.476;15.588;2023-02-26T03:16:31;96840.30;;;-2.09;80.33
73106;BME280;61559;50.476;15.588;2023-02-26T03:19:13;96844.17;;;-2.09;80.50
73106;BME280;61559;50.476;15.588;2023-02-26T03:21:49;96849.23;;;-2.07;80.50
73106;BME280;61559;50.476;15.588;2023-02-26T03:24:30;96857.38;;;-2.06;80.79
73106;BME280;61559;50.476;15.588;2023-02-26T03:27:07;96861.66;;;-2.05;80.77
73106;BME280;61559;50.476;15.588;2023-02-26T03:29:46;96865.73;;;-2.02;80.56
73106;BME280;61559;50.476;15.588;2023-02-26T03:32:24;96869.25;;;-1.99;80.98
73106;BME280;61559;50.476;15.588;2023-02-26T03:35:00;96872.66;;;-1.93;81.14
73106;BME280;61559;50.476;15.588;2023-02-26T03:37:36;96872.63;;;-1.89;81.24
73106;BME280;61559;50.476;15.588;2023-02-26T03:40:16;96878.77;;;-1.86;81.40
73106;BME280;61559;50.476;15.588;2023-02-26T03:42:52;96885.76;;;-1.83;81.56
73106;BME280;61559;50.476;15.588;2023-02-26T03:45:27;96885.58;;;-1.80;81.26
73106;BME280;61559;50.476;15.588;2023-02-26T03:48:00;96886.80;;;-1.79;81.40
73106;BME280;61559;50.476;15.588;2023-02-26T03:50:34;96886.07;;;-1.75;81.52
73106;BME280;61559;50.476;15.588;2023-02-26T03:53:11;96887.16;;;-1.73;81.50
73106;BME280;61559;50.476;15.588;2023-02-26T03:55:45;96884.24;;;-1.71;81.34
73106;BME280;61559;50.476;15.588;2023-02-26T03:58:19;96887.74;;;-1.70;81.40
73106;BME280;61559;50.476;15.588;2023-02-26T04:00:53;96894.55;;;-1.72;81.47
73106;BME280;61559;50.476;15.588;2023-02-26T04:03:30;96899.05;;;-1.73;81.44
73106;BME280;61559;50.476;15.588;2023-02-26T04:06:04;96901.61;;;-1.76;81.54
73106;BME280;61559;50.476;15.588;2023-02-26T04:08:36;96910.89;;;-1.78;81.63
73106;BME280;61559;50.476;15.588;2023-02-26T04:11:09;96916.64;;;-1.78;81.53
73106;BME280;61559;50.476;15.588;2023-02-26T04:13:41;96919.55;;;-1.78;81.61
73106;BME280;61559;50.476;15.588;2023-02-26T04:16:12;96919.05;;;-1.79;81.80
73106;BME280;61559;50.476;15.588;2023-02-26T04:18:43;96922.39;;;-1.78;81.38
73106;BME280;61559;50.476;15.588;2023-02-26T04:21:18;96924.38;;;-1.76;81.28
73106;BME280;61559;50.476;15.588;2023-02-26T04:23:50;96923.78;;;-1.74;81.10
73106;BME280;61559;50.476;15.588;2023-02-26T04:26:21;96927.06;;;-1.75;81.04
73106;BME280;61559;50.476;15.588;2023-02-26T04:28:51;96929.38;;;-1.74;81.05
73106;BME280;61559;50.476;15.588;2023-02-26T04:31:22;96931.04;;;-1.73;80.95
73106;BME280;61559;50.476;15.588;2023-02-26T04:33:53;96932.76;;;-1.72;81.15
73106;BME280;61559;50.476;15.588;2023-02-26T04:36:24;96937.96;;;-1.71;81.20
73106;BME280;61559;50.476;15.588;2023-02-26T04:38:56;96941.66;;;-1.69;81.32
73106;BME280;61559;50.476;15.588;2023-02-26T04:41:28;96943.81;;;-1.71;81.40
73106;BME280;61559;50.476;15.588;2023-02-26T04:43:59;96946.59;;;-1.73;81.14
73106;BME280;61559;50.476;15.588;2023-02-26T04:46:31;96942.30;;;-1.75;81.33
73106;BME280;61559;50.476;15.588;2023-02-26T04:49:02;96936.94;;;-1.76;81.24
73106;BME280;61559;50.476;15.588;2023-02-26T04:51:33;96938.30;;;-1.78;81.03
73106;BME280;61559;50.476;15.588;2023-02-26T04:54:05;96939.18;;;-1.80;80.89
73106;BME280;61559;50.476;15.588;2023-02-26T04:56:36;96945.59;;;-1.81;81.01
73106;BME280;61559;50.476;15.588;2023-02-26T04:59:07;96949.92;;;-1.82;81.12
73106;BME280;61559;50.476;15.588;2023-02-26T05:01:38;96958.58;;;-1.84;81.13
73106;BME280;61559;50.476;15.588;2023-02-26T05:04:09;96966.98;;;-1.89;80.92
73106;BME280;61559;50.476;15.588;2023-02-26T05:06:41;96975.18;;;-1.90;81.13
73106;BME280;61559;50.476;15.588;2023-02-26T05:09:12;96982.25;;;-1.91;81.26
73106;BME280;61559;50.476;15.588;2023-02-26T05:11:43;96982.70;;;-1.90;81.29
73106;BME280;61559;50.476;15.588;2023-02-26T05:14:14;96981.64;;;-1.91;81.25
73106;BME280;61559;50.476;15.588;2023-02-26T05:16:45;96980.79;;;-1.91;81.37
73106;BME280;61559;50.476;15.588;2023-02-26T05:19:16;96986.11;;;-1.93;81.34
73106;BME280;61559;50.476;15.588;2023-02-26T05:21:47;96989.74;;;-1.93;81.42
73106;BME280;61559;50.476;15.588;2023-02-26T05:24:18;96989.40;;;-1.92;81.57
73106;BME280;61559;50.476;15.588;2023-02-26T05:26:49;96991.93;;;-1.91;81.48
73106;BME280;61559;50.476;15.588;2023-02-26T05:29:20;96996.04;;;-1.89;81.57
73106;BME280;61559;50.476;15.588;2023-02-26T05:31:51;97001.70;;;-1.88;81.47
73106;BME280;61559;50.476;15.588;2023-02-26T05:34:21;97008.93;;;-1.86;81.66
73106;BME280;61559;50.476;15.588;2023-02-26T05:36:53;97009.14;;;-1.86;81.85
73106;BME280;61559;50.476;15.588;2023-02-26T05:39:24;97013.80;;;-1.84;81.68
73106;BME280;61559;50.476;15.588;2023-02-26T05:41:55;97017.25;;;-1.82;81.99
73106;BME280;61559;50.476;15.588;2023-02-26T05:44:26;97023.27;;;-1.80;82.11
73106;BME280;61559;50.476;15.588;2023-02-26T05:46:57;97030.38;;;-1.77;82.20
73106;BME280;61559;50.476;15.588;2023-02-26T05:49:28;97033.33;;;-1.72;82.21
73106;BME280;61559;50.476;15.588;2023-02-26T05:51:59;97039.59;;;-1.67;82.33
73106;BME280;61559;50.476;15.588;2023-02-26T05:54:31;97043.70;;;-1.63;82.23
73106;BME280;61559;50.476;15.588;2023-02-26T05:57:03;97043.73;;;-1.61;82.06
73106;BME280;61559;50.476;15.588;2023-02-26T05:59:33;97049.54;;;-1.60;82.22
73106;BME280;61559;50.476;15.588;2023-02-26T06:02:05;97051.13;;;-1.57;82.18
73106;BME280;61559;50.476;15.588;2023-02-26T06:04:36;97056.88;;;-1.54;82.18
73106;BME280;61559;50.476;15.588;2023-02-26T06:07:07;97063.14;;;-1.52;82.13
73106;BME280;61559;50.476;15.588;2023-02-26T06:09:39;97068.21;;;-1.50;82.13
73106;BME280;61559;50.476;15.588;2023-02-26T06:12:10;97073.89;;;-1.48;82.36
73106;BME280;61559;50.476;15.588;2023-02-26T06:14:44;97072.34;;;-1.46;82.27
73106;BME280;61559;50.476;15.588;2023-02-26T06:17:15;97076.67;;;-1.47;82.20
73106;BME280;61559;50.476;15.588;2023-02-26T06:19:46;97081.63;;;-1.46;82.02
73106;BME280;61559;50.476;15.588;2023-02-26T06:22:17;97087.20;;;-1.45;81.76
73106;BME280;61559;50.476;15.588;2023-02-26T06:24:49;97087.20;;;-1.45;81.86
73106;BME280;61559;50.476;15.588;2023-02-26T06:27:18;97089.47;;;-1.46;82.04
73106;BME280;61559;50.476;15.588;2023-02-26T06:29:49;97096.23;;;-1.45;82.10
73106;BME280;61559;50.476;15.588;2023-02-26T06:32:20;97104.30;;;-1.42;82.09
73106;BME280;61559;50.476;15.588;2023-02-26T06:34:52;97113.35;;;-1.42;82.14
73106;BME280;61559;50.476;15.588;2023-02-26T06:37:23;97115.56;;;-1.43;82.17
73106;BME280;61559;50.476;15.588;2023-02-26T06:39:54;97118.10;;;-1.41;82.40
73106;BME280;61559;50.476;15.588;2023-02-26T06:42:25;97125.05;;;-1.39;82.33
73106;BME280;61559;50.476;15.588;2023-02-26T06:44:56;97129.16;;;-1.37;82.24
73106;BME280;61559;50.476;15.588;2023-02-26T06:47:28;97131.45;;;-1.34;82.19
73106;BME280;61559;50.476;15.588;2023-02-26T06:49:59;97137.31;;;-1.29;82.26
73106;BME280;61559;50.476;15.588;2023-02-26T06:52:31;97137.60;;;-1.25;82.14
73106;BME280;61559;50.476;15.588;2023-02-26T06:55:02;97144.34;;;-1.22;81.71
73106;BME280;61559;50.476;15.588;2023-02-26T06:57:34;97152.36;;;-1.19;81.73
73106;BME280;61559;50.476;15.588;2023-02-26T07:00:06;97159.52;;;-1.15;81.58
73106;BME280;61559;50.476;15.588;2023-02-26T07:02:37;97166.77;;;-1.12;81.59
73106;BME280;61559;50.476;15.588;2023-02-26T07:05:10;97168.27;;;-1.10;81.49
73106;BME280;61559;50.476;15.588;2023-02-26T07:07:40;97173.91;;;-1.06;81.66
73106;BME280;61559;50.476;15.588;2023-02-26T07:10:12;97178.40;;;-1.01;81.59
73106;BME280;61559;50.476;15.588;2023-02-26T07:12:43;97183.95;;;-0.95;81.34
73106;BME280;61559;50.476;15.588;2023-02-26T07:15:14;97183.25;;;-0.90;81.23
73106;BME280;61559;50.476;15.588;2023-02-26T07:17:46;97188.55;;;-0.83;81.31
73106;BME280;61559;50.476;15.588;2023-02-26T07:20:17;97193.41;;;-0.74;81.60
73106;BME280;61559;50.476;15.588;2023-02-26T07:22:48;97192.58;;;-0.66;81.54
73106;BME280;61559;50.476;15.588;2023-02-26T07:25:19;97199.40;;;-0.59;80.98
73106;BME280;61559;50.476;15.588;2023-02-26T07:27:50;97200.51;;;-0.53;80.51
73106;BME280;61559;50.476;15.588;2023-02-26T07:30:22;97204.14;;;-0.46;80.32
73106;BME280;61559;50.476;15.588;2023-02-26T07:32:51;97205.77;;;-0.37;80.13
73106;BME280;61559;50.476;15.588;2023-02-26T07:35:22;97208.36;;;-0.30;79.91
73106;BME280;61559;50.476;15.588;2023-02-26T07:37:54;97215.11;;;-0.21;79.81
73106;BME280;61559;50.476;15.588;2023-02-26T07:40:26;97209.65;;;-0.12;79.62
73106;BME280;61559;50.476;15.588;2023-02-26T07:42:57;97210.23;;;-0.04;79.39
73106;BME280;61559;50.476;15.588;2023-02-26T07:45:28;97215.23;;;0.04;79.30
73106;BME280;61559;50.476;15.588;2023-02-26T07:47:59;97218.27;;;0.07;78.66
73106;BME280;61559;50.476;15.588;2023-02-26T07:50:31;97227.02;;;0.06;78.19
73106;BME280;61559;50.476;15.588;2023-02-26T07:53:02;97234.27;;;0.06;78.22
73106;BME280;61559;50.476;15.588;2023-02-26T07:55:33;97238.05;;;0.10;77.58
73106;BME280;61559;50.476;15.588;2023-02-26T07:58:04;97240.85;;;0.04;75.69
73106;BME280;61559;50.476;15.588;2023-02-26T08:00:35;97243.66;;;-0.04;76.10
73106;BME280;61559;50.476;15.588;2023-02-26T08:03:06;97245.52;;;-0.04;76.88
73106;BME280;61559;50.476;15.588;2023-02-26T08:05:37;97242.88;;;0.04;77.00
73106;BME280;61559;50.476;15.588;2023-02-26T08:08:09;97246.84;;;0.16;77.16
73106;BME280;61559;50.476;15.588;2023-02-26T08:10:39;97249.57;;;0.25;76.36
73106;BME280;61559;50.476;15.588;2023-02-26T08:13:09;97255.61;;;0.26;76.24
73106;BME280;61559;50.476;15.588;2023-02-26T08:15:40;97261.35;;;0.32;76.03
73106;BME280;61559;50.476;15.588;2023-02-26T08:18:12;97261.15;;;0.39;75.95
73106;BME280;61559;50.476;15.588;2023-02-26T08:20:43;97266.63;;;0.50;76.17
73106;BME280;61559;50.476;15.588;2023-02-26T08:23:14;97270.07;;;0.63;76.08
73106;BME280;61559;50.476;15.588;2023-02-26T08:25:45;97271.23;;;0.76;76.00
73106;BME280;61559;50.476;15.588;2023-02-26T08:28:17;97275.06;;;0.86;74.76
73106;BME280;61559;50.476;15.588;2023-02-26T08:30:52;97273.45;;;0.84;74.17
73106;BME280;61559;50.476;15.588;2023-02-26T08:33:24;97277.48;;;0.77;73.58
73106;BME280;61559;50.476;15.588;2023-02-26T08:35:56;97279.52;;;0.72;73.96
73106;BME280;61559;50.476;15.588;2023-02-26T08:38:29;97281.91;;;0.72;74.07
73106;BME280;61559;50.476;15.588;2023-02-26T08:41:01;97276.74;;;0.72;73.70
73106;BME280;61559;50.476;15.588;2023-02-26T08:43:30;97293.06;;;0.70;73.80
73106;BME280;61559;50.476;15.588;2023-02-26T08:46:01;97296.11;;;0.62;73.93
73106;BME280;61559;50.476;15.588;2023-02-26T08:48:33;97302.59;;;0.61;74.05
73106;BME280;61559;50.476;15.588;2023-02-26T08:51:04;97307.95;;;0.65;74.47
73106;BME280;61559;50.476;15.588;2023-02-26T08:53:35;97310.05;;;0.73;74.18
73106;BME280;61559;50.476;15.588;2023-02-26T08:56:07;97310.18;;;0.78;73.87
73106;BME280;61559;50.476;15.588;2023-02-26T08:58:38;97312.68;;;0.84;74.07
73106;BME280;61559;50.476;15.588;2023-02-26T09:01:10;97321.51;;;0.92;74.03
73106;BME280;61559;50.476;15.588;2023-02-26T09:03:41;97325.42;;;0.94;72.94
73106;BME280;61559;50.476;15.588;2023-02-26T09:06:12;97327.65;;;0.93;73.07
73106;BME280;61559;50.476;15.588;2023-02-26T09:08:43;97334.26;;;0.98;73.74
73106;BME280;61559;50.476;15.588;2023-02-26T09:11:14;97337.97;;;1.01;73.53
73106;BME280;61559;50.476;15.588;2023-02-26T09:13:46;97342.53;;;1.00;73.16
73106;BME280;61559;50.476;15.588;2023-02-26T09:16:17;97345.17;;;1.02;73.25
73106;BME280;61559;50.476;15.588;2023-02-26T09:18:48;97356.38;;;1.00;73.10
73106;BME280;61559;50.476;15.588;2023-02-26T09:21:19;97361.40;;;1.00;73.40
73106;BME280;61559;50.476;15.588;2023-02-26T09:23:50;97365.02;;;1.03;74.07
73106;BME280;61559;50.476;15.588;2023-02-26T09:26:22;97363.77;;;1.10;73.53
73106;BME280;61559;50.476;15.588;2023-02-26T09:28:53;97368.80;;;1.10;72.56
73106;BME280;61559;50.476;15.588;2023-02-26T09:31:24;97371.50;;;1.14;73.23
73106;BME280;61559;50.476;15.588;2023-02-26T09:33:57;97372.86;;;1.25;72.95
73106;BME280;61559;50.476;15.588;2023-02-26T09:36:27;97373.29;;;1.32;71.64
73106;BME280;61559;50.476;15.588;2023-02-26T09:39:00;97370.23;;;1.31;69.90
73106;BME280;61559;50.476;15.588;2023-02-26T09:41:35;97376.06;;;1.26;70.05
73106;BME280;61559;50.476;15.588;2023-02-26T09:44:17;97374.70;;;1.28;70.16
73106;BME280;61559;50.476;15.588;2023-02-26T09:46:54;97377.14;;;1.32;69.64
73106;BME280;61559;50.476;15.588;2023-02-26T09:49:33;97373.45;;;1.35;69.07
73106;BME280;61559;50.476;15.588;2023-02-26T09:52:25;97373.05;;;1.38;68.50
73106;BME280;61559;50.476;15.588;2023-02-26T09:55:03;97382.79;;;1.37;67.60
73106;BME280;61559;50.476;15.588;2023-02-26T09:57:40;97391.50;;;1.31;65.25
73106;BME280;61559;50.476;15.588;2023-02-26T10:00:22;97389.64;;;1.22;65.10
73106;BME280;61559;50.476;15.588;2023-02-26T10:03:01;97391.00;;;1.20;66.59
73106;BME280;61559;50.476;15.588;2023-02-26T10:05:41;97392.98;;;1.21;65.87
73106;BME280;61559;50.476;15.588;2023-02-26T10:08:17;97397.75;;;1.22;67.30
73106;BME280;61559;50.476;15.588;2023-02-26T10:10:53;97398.16;;;1.34;68.13
73106;BME280;61559;50.476;15.588;2023-02-26T10:13:34;97398.70;;;1.46;67.33
73106;BME280;61559;50.476;15.588;2023-02-26T10:16:27;97402.11;;;1.46;66.24
73106;BME280;61559;50.476;15.588;2023-02-26T10:19:03;97398.66;;;1.51;66.96
73106;BME280;61559;50.476;15.588;2023-02-26T10:21:38;97405.54;;;1.55;65.59
73106;BME280;61559;50.476;15.588;2023-02-26T10:24:14;97407.35;;;1.52;65.04
73106;BME280;61559;50.476;15.588;2023-02-26T10:26:57;97412.47;;;1.53;66.29
73106;BME280;61559;50.476;15.588;2023-02-26T10:29:33;97418.54;;;1.60;66.23
73106;BME280;61559;50.476;15.588;2023-02-26T10:32:27;97422.65;;;1.61;64.37
73106;BME280;61559;50.476;15.588;2023-02-26T10:35:02;97417.66;;;1.55;62.44
73106;BME280;61559;50.476;15.588;2023-02-26T10:37:45;97421.45;;;1.50;62.69
73106;BME280;61559;50.476;15.588;2023-02-26T10:40:22;97419.31;;;1.45;62.25
73106;BME280;61559;50.476;15.588;2023-02-26T10:42:57;97420.82;;;1.43;63.34
73106;BME280;61559;50.476;15.588;2023-02-26T10:45:41;97417.33;;;1.43;63.68
73106;BME280;61559;50.476;15.588;2023-02-26T10:48:31;97419.30;;;1.43;62.00
73106;BME280;61559;50.476;15.588;2023-02-26T10:51:13;97420.33;;;1.49;65.17
73106;BME280;61559;50.476;15.588;2023-02-26T10:53:48;97427.02;;;1.63;63.73
73106;BME280;61559;50.476;15.588;2023-02-26T10:56:25;97423.89;;;1.73;62.42
73106;BME280;61559;50.476;15.588;2023-02-26T10:58:58;97425.05;;;1.74;61.43
73106;BME280;61559;50.476;15.588;2023-02-26T11:01:30;97432.72;;;1.77;61.34
73106;BME280;61559;50.476;15.588;2023-02-26T11:04:04;97434.04;;;1.79;61.78
73106;BME280;61559;50.476;15.588;2023-02-26T11:06:40;97437.20;;;1.83;62.25
73106;BME280;61559;50.476;15.588;2023-02-26T11:09:21;97440.86;;;1.84;60.70
73106;BME280;61559;50.476;15.588;2023-02-26T11:11:55;97442.27;;;1.81;60.96
73106;BME280;61559;50.476;15.588;2023-02-26T11:14:27;97449.38;;;1.75;60.32
73106;BME280;61559;50.476;15.588;2023-02-26T11:17:06;97444.66;;;1.74;60.61
73106;BME280;61559;50.476;15.588;2023-02-26T11:19:44;97445.88;;;1.78;60.81
73106;BME280;61559;50.476;15.588;2023-02-26T11:22:18;97445.85;;;1.90;61.26
73106;BME280;61559;50.476;15.588;2023-02-26T11:24:52;97445.67;;;2.06;61.23
73106;BME280;61559;50.476;15.588;2023-02-26T11:27:26;97450.47;;;2.16;61.85
73106;BME280;61559;50.476;15.588;2023-02-26T11:30:06;97445.85;;;2.22;61.35
73106;BME280;61559;50.476;15.588;2023-02-26T11:32:38;97451.84;;;2.14;61.31
73106;BME280;61559;50.476;15.588;2023-02-26T11:35:12;97454.97;;;2.09;61.12
73106;BME280;61559;50.476;15.588;2023-02-26T11:37:48;97455.02;;;2.04;60.80
73106;BME280;61559;50.476;15.588;2023-02-26T11:40:25;97458.42;;;2.04;61.03
73106;BME280;61559;50.476;15.588;2023-02-26T11:43:04;97463.30;;;2.06;60.12
73106;BME280;61559;50.476;15.588;2023-02-26T11:45:38;97462.25;;;2.15;60.15
73106;BME280;61559;50.476;15.588;2023-02-26T11:48:14;97465.15;;;2.20;58.52
73106;BME280;61559;50.476;15.588;2023-02-26T11:50:48;97464.85;;;2.22;58.46
73106;BME280;61559;50.476;15.588;2023-02-26T11:53:29;97459.27;;;2.27;58.88
73106;BME280;61559;50.476;15.588;2023-02-26T11:56:03;97467.45;;;2.35;60.50
73106;BME280;61559;50.476;15.588;2023-02-26T11:58:37;97467.25;;;2.39;60.48
73106;BME280;61559;50.476;15.588;2023-02-26T12:01:12;97480.36;;;2.33;60.92
73106;BME280;61559;50.476;15.588;2023-02-26T12:03:46;97495.33;;;2.15;60.67
73106;BME280;61559;50.476;15.588;2023-02-26T12:06:19;97493.08;;;2.06;61.92
73106;BME280;61559;50.476;15.588;2023-02-26T12:08:51;97489.23;;;1.92;61.15
73106;BME280;61559;50.476;15.588;2023-02-26T12:11:38;97490.30;;;1.78;61.44
73106;BME280;61559;50.476;15.588;2023-02-26T12:14:32;97496.40;;;1.72;62.71
73106;BME280;61559;50.476;15.588;2023-02-26T12:17:14;97494.83;;;1.68;64.28
73106;BME280;61559;50.476;15.588;2023-02-26T12:19:53;97498.20;;;1.64;64.16
73106;BME280;61559;50.476;15.588;2023-02-26T12:22:40;97498.09;;;1.62;65.02
73106;BME280;61559;50.476;15.588;2023-02-26T12:28:49;97496.27;;;1.84;64.02
73106;BME280;61559;50.476;15.588;2023-02-26T12:31:48;97498.64;;;1.97;64.63
73106;BME280;61559;50.476;15.588;2023-02-26T12:34:41;97505.36;;;2.04;63.60
73106;BME280;61559;50.476;15.588;2023-02-26T12:37:27;97499.73;;;2.03;61.58
73106;BME280;61559;50.476;15.588;2023-02-26T12:40:11;97500.77;;;1.99;62.28
73106;BME280;61559;50.476;15.588;2023-02-26T12:42:54;97508.11;;;2.04;63.48
73106;BME280;61559;50.476;15.588;2023-02-26T12:45:44;97514.98;;;1.94;63.84
73106;BME280;61559;50.476;15.588;2023-02-26T12:48:39;97515.80;;;1.82;64.26
73106;BME280;61559;50.476;15.588;2023-02-26T12:51:23;97521.32;;;1.77;65.03
73106;BME280;61559;50.476;15.588;2023-02-26T12:54:08;97526.70;;;1.72;64.56
73106;BME280;61559;50.476;15.588;2023-02-26T12:57:06;97529.33;;;1.64;64.94
73106;BME280;61559;50.476;15.588;2023-02-26T12:59:55;97533.33;;;1.51;65.30
73106;BME280;61559;50.476;15.588;2023-02-26T13:02:52;97533.67;;;1.41;65.78
73106;BME280;61559;50.476;15.588;2023-02-26T13:05:36;97535.95;;;1.39;66.27
73106;BME280;61559;50.476;15.588;2023-02-26T13:08:18;97537.56;;;1.37;65.72
73106;BME280;61559;50.476;15.588;2023-02-26T13:11:00;97536.45;;;1.38;66.17
73106;BME280;61559;50.476;15.588;2023-02-26T13:13:52;97545.02;;;1.45;65.85
73106;BME280;61559;50.476;15.588;2023-02-26T13:16:40;97540.14;;;1.53;65.60
73106;BME280;61559;50.476;15.588;2023-02-26T13:19:27;97544.36;;;1.65;66.12
73106;BME280;61559;50.476;15.588;2023-02-26T13:22:13;97546.45;;;1.86;64.54
73106;BME280;61559;50.476;15.588;2023-02-26T13:24:50;97547.04;;;1.95;62.75
73106;BME280;61559;50.476;15.588;2023-02-26T13:27:26;97555.97;;;1.94;61.47
73106;BME280;61559;50.476;15.588;2023-02-26T13:30:09;97565.44;;;1.85;60.20
73106;BME280;61559;50.476;15.588;2023-02-26T13:32:45;97567.17;;;1.72;61.01
73106;BME280;61559;50.476;15.588;2023-02-26T13:35:21;97573.38;;;1.63;62.11
73106;BME280;61559;50.476;15.588;2023-02-26T13:37:57;97575.98;;;1.56;63.41
73106;BME280;61559;50.476;15.588;2023-02-26T13:40:52;97578.52;;;1.47;64.25